createdAt,value
2019-04-21T00:01:59.574Z,24.17
2019-04-21T00:04:48.332Z,21.73
2019-04-21T00:07:26.458Z,21.93
2019-04-21T00:10:09.710Z,20.50
2019-04-21T00:15:04.738Z,26.67
2019-04-21T00:17:28.710Z,30.70
2019-04-21T00:20:15.755Z,24.63
2019-04-21T00:22:52.378Z,22.67
2019-04-21T00:25:30.921Z,23.50
2019-04-21T00:28:09.727Z,22.90
2019-04-21T00:30:44.215Z,24.10
2019-04-21T00:33:09.166Z,26.00
2019-04-21T00:35:45.106Z,21.93
2019-04-21T00:38:35.515Z,24.93
2019-04-21T00:41:13.249Z,23.80
2019-04-21T00:43:41.349Z,22.77
2019-04-21T00:46:13.560Z,28.13
2019-04-21T00:48:57.437Z,32.83
2019-04-21T00:51:42.151Z,25.47
2019-04-21T00:54:16.970Z,33.57
2019-04-21T00:56:52.637Z,26.77
2019-04-21T00:59:28.199Z,22.97
2019-04-21T01:02:00.088Z,23.10
2019-04-21T01:04:39.506Z,27.27
2019-04-21T01:07:13.278Z,22.90
2019-04-21T01:09:43.954Z,23.70
2019-04-21T01:12:31.913Z,29.10
2019-04-21T01:15:04.724Z,25.30
2019-04-21T01:17:44.816Z,24.80
2019-04-21T01:20:09.652Z,26.73
2019-04-21T01:22:29.515Z,23.77
2019-04-21T01:25:11.898Z,25.63
2019-04-21T01:27:54.098Z,23.60
2019-04-21T01:30:34.739Z,26.40
2019-04-21T01:33:16.950Z,24.10
2019-04-21T01:35:48.433Z,21.37
2019-04-21T01:38:28.842Z,23.20
2019-04-21T01:41:08.363Z,21.23
2019-04-21T01:43:33.317Z,19.67
2019-04-21T01:46:10.934Z,19.77
2019-04-21T01:48:43.699Z,24.67
2019-04-21T01:51:22.484Z,25.33
2019-04-21T01:54:22.245Z,29.43
2019-04-21T01:57:02.752Z,29.63
2019-04-21T01:59:39.587Z,19.40
2019-04-21T02:02:19.306Z,22.37
2019-04-21T02:04:57.604Z,24.03
2019-04-21T02:07:26.887Z,19.37
2019-04-21T02:10:05.137Z,21.63
2019-04-21T02:12:48.923Z,26.07
2019-04-21T02:15:38.002Z,23.90
2019-04-21T02:17:54.106Z,19.40
2019-04-21T02:20:21.793Z,19.23
2019-04-21T02:23:22.399Z,19.23
2019-04-21T02:25:44.700Z,21.60
2019-04-21T02:28:22.437Z,17.83
2019-04-21T02:41:31.176Z,20.60
2019-04-21T02:47:19.488Z,22.20
2019-04-21T02:49:32.698Z,21.00
2019-04-21T02:57:08.581Z,21.87
2019-04-21T03:00:10.148Z,27.07
2019-04-21T03:06:10.495Z,20.10
2019-04-21T03:11:17.620Z,19.60
2019-04-21T03:14:12.490Z,20.30
2019-04-21T03:16:32.977Z,24.33
2019-04-21T03:19:17.579Z,19.47
2019-04-21T03:22:39.379Z,22.73
2019-04-21T03:25:21.433Z,18.10
2019-04-21T03:27:51.231Z,20.90
2019-04-21T03:30:42.610Z,18.50
2019-04-21T03:40:37.266Z,20.20
2019-04-21T03:43:12.657Z,20.80
2019-04-21T03:45:49.218Z,20.73
2019-04-21T03:48:27.038Z,18.50
2019-04-21T03:50:56.659Z,19.37
2019-04-21T03:53:44.477Z,18.70
2019-04-21T03:58:55.867Z,20.80
2019-04-21T04:01:57.767Z,23.30
2019-04-21T04:07:49.799Z,16.70
2019-04-21T04:10:22.402Z,16.93
2019-04-21T04:12:52.540Z,17.40
2019-04-21T04:15:45.374Z,21.83
2019-04-21T04:18:04.616Z,24.27
2019-04-21T04:25:51.585Z,25.93
2019-04-21T04:31:21.475Z,24.67
2019-04-21T04:36:30.164Z,17.33
2019-04-21T04:39:25.833Z,19.83
2019-04-21T04:47:22.744Z,19.43
2019-04-21T04:52:36.215Z,14.67
2019-04-21T04:55:26.161Z,15.93
2019-04-21T05:02:56.397Z,15.30
2019-04-21T05:06:11.912Z,14.67
2019-04-21T05:08:42.381Z,15.03
2019-04-21T05:11:20.877Z,21.37
2019-04-21T05:13:50.896Z,13.83
2019-04-21T05:16:36.251Z,15.37
2019-04-21T05:24:01.319Z,18.50
2019-04-21T05:26:34.506Z,16.37
2019-04-21T05:29:10.594Z,18.30
2019-04-21T05:32:13.361Z,19.07
2019-04-21T05:34:37.399Z,15.90
2019-04-21T05:37:37.152Z,20.93
2019-04-21T05:40:15.845Z,19.63
2019-04-21T05:42:55.539Z,14.13
2019-04-21T05:45:37.309Z,14.93
2019-04-21T05:48:33.626Z,17.43
2019-04-21T05:51:02.046Z,16.40
2019-04-21T05:53:55.662Z,15.30
2019-04-21T05:56:17.448Z,16.27
2019-04-21T05:58:48.030Z,20.13
2019-04-21T06:01:33.443Z,15.30
2019-04-21T06:04:05.413Z,14.67
2019-04-21T06:06:49.791Z,16.17
2019-04-21T06:09:18.987Z,11.77
2019-04-21T06:11:55.527Z,13.43
2019-04-21T06:14:30.524Z,13.93
2019-04-21T06:17:17.522Z,12.83
2019-04-21T06:19:43.258Z,14.83
2019-04-21T06:22:13.873Z,16.10
2019-04-21T06:30:24.006Z,13.13
2019-04-21T06:32:47.152Z,14.80
2019-04-21T06:35:56.510Z,20.20
2019-04-21T06:38:19.269Z,11.80
2019-04-21T06:40:50.084Z,11.40
2019-04-21T06:43:37.718Z,13.10
2019-04-21T06:46:02.228Z,14.10
2019-04-21T06:48:44.452Z,10.20
2019-04-21T06:51:15.115Z,13.57
2019-04-21T06:53:59.373Z,11.10
2019-04-21T06:56:38.010Z,15.10
2019-04-21T06:59:06.725Z,11.73
2019-04-21T07:01:51.463Z,16.50
2019-04-21T07:04:25.280Z,12.47
2019-04-21T07:06:54.216Z,17.87
2019-04-21T07:09:31.867Z,12.13
2019-04-21T07:12:06.196Z,15.90
2019-04-21T07:14:50.046Z,14.00
2019-04-21T07:17:26.938Z,11.33
2019-04-21T07:22:36.859Z,12.33
2019-04-21T07:25:18.230Z,12.77
2019-04-21T07:27:49.052Z,12.60
2019-04-21T07:30:26.673Z,17.30
2019-04-21T07:33:09.249Z,16.37
2019-04-21T07:35:31.816Z,12.67
2019-04-21T07:38:17.992Z,11.30
2019-04-21T07:40:39.982Z,13.87
2019-04-21T07:43:13.581Z,14.80
2019-04-21T07:45:49.853Z,15.70
2019-04-21T07:48:36.142Z,14.07
2019-04-21T07:51:33.973Z,13.33
2019-04-21T07:54:10.401Z,10.90
2019-04-21T07:56:28.757Z,12.27
2019-04-21T07:59:21.247Z,13.30
2019-04-21T08:01:55.151Z,19.07
2019-04-21T08:04:49.566Z,12.13
2019-04-21T08:07:09.942Z,12.33
2019-04-21T08:09:42.657Z,9.73
2019-04-21T08:12:08.108Z,11.43
2019-04-21T08:14:50.711Z,8.97
2019-04-21T08:17:30.206Z,13.83
2019-04-21T08:20:00.571Z,12.43
2019-04-21T08:22:46.334Z,12.20
2019-04-21T08:28:26.430Z,14.67
2019-04-21T08:30:56.801Z,9.00
2019-04-21T08:33:17.538Z,8.20
2019-04-21T08:38:31.515Z,10.40
2019-04-21T08:41:01.563Z,10.07
2019-04-21T08:46:16.949Z,9.60
2019-04-21T08:48:52.574Z,9.27
2019-04-21T08:51:44.756Z,8.50
2019-04-21T08:54:05.514Z,10.87
2019-04-21T08:56:54.474Z,12.53
2019-04-21T08:59:53.371Z,8.90
2019-04-21T09:02:34.000Z,8.37
2019-04-21T09:05:09.026Z,9.57
2019-04-21T09:10:14.321Z,7.30
2019-04-21T09:12:46.614Z,11.57
2019-04-21T09:15:29.357Z,9.93
2019-04-21T09:18:00.663Z,8.33
2019-04-21T09:23:18.089Z,6.97
2019-04-21T09:25:52.258Z,5.67
2019-04-21T09:28:22.670Z,8.83
2019-04-21T09:30:52.173Z,4.57
2019-04-21T09:33:28.050Z,6.30
2019-04-21T09:36:02.665Z,4.70
2019-04-21T09:38:39.838Z,5.00
2019-04-21T09:41:15.477Z,5.50
2019-04-21T09:43:52.142Z,11.13
2019-04-21T09:46:25.429Z,7.43
2019-04-21T09:49:05.753Z,6.33
2019-04-21T09:51:37.220Z,8.57
2019-04-21T09:54:17.458Z,15.80
2019-04-21T09:56:54.013Z,8.13
2019-04-21T09:59:28.450Z,7.37
2019-04-21T10:02:08.458Z,6.80
2019-04-21T10:04:34.102Z,6.90
2019-04-21T10:07:23.617Z,7.10
2019-04-21T10:09:49.908Z,3.87
2019-04-21T10:12:23.792Z,10.67
2019-04-21T10:14:57.537Z,5.30
2019-04-21T10:17:56.230Z,10.43
2019-04-21T10:20:30.891Z,7.57
2019-04-21T10:23:07.213Z,8.33
2019-04-21T10:25:43.209Z,10.30
2019-04-21T10:28:19.025Z,5.23
2019-04-21T10:30:54.095Z,7.30
2019-04-21T10:33:30.767Z,7.70
2019-04-21T10:36:06.861Z,8.33
2019-04-21T10:38:47.745Z,7.10
2019-04-21T10:41:17.720Z,7.93
2019-04-21T10:43:51.527Z,6.63
2019-04-21T10:46:26.602Z,10.07
2019-04-21T10:49:01.096Z,8.33
2019-04-21T10:51:35.276Z,8.77
2019-04-21T10:54:09.052Z,7.10
2019-04-21T10:56:44.465Z,11.73
2019-04-21T10:59:20.448Z,6.90
2019-04-21T11:01:56.839Z,8.33
2019-04-21T11:04:36.443Z,6.37
2019-04-21T11:07:31.887Z,8.13
2019-04-21T11:10:04.461Z,14.03
2019-04-21T11:12:39.741Z,6.70
2019-04-21T11:15:14.876Z,11.57
2019-04-21T11:17:49.214Z,11.87
2019-04-21T11:20:24.780Z,7.80
2019-04-21T11:23:01.693Z,8.40
2019-04-21T11:25:37.849Z,5.77
2019-04-21T11:28:14.280Z,8.30
2019-04-21T11:30:50.972Z,7.60
2019-04-21T11:33:24.981Z,6.90
2019-04-21T11:36:01.357Z,8.57
2019-04-21T11:38:59.193Z,7.93
2019-04-21T11:41:19.132Z,7.97
2019-04-21T11:43:54.927Z,7.70
2019-04-21T11:46:29.093Z,7.93
2019-04-21T11:49:06.331Z,6.23
2019-04-21T11:51:40.786Z,7.90
2019-04-21T11:54:15.064Z,15.60
2019-04-21T11:56:49.079Z,10.80
2019-04-21T11:59:23.734Z,8.63
2019-04-21T12:01:59.423Z,9.23
2019-04-21T12:04:33.732Z,11.93
2019-04-21T12:07:09.175Z,16.13
2019-04-21T12:09:45.772Z,11.17
2019-04-21T12:12:19.377Z,11.03
2019-04-21T12:14:55.610Z,11.67
2019-04-21T12:17:30.036Z,10.57
2019-04-21T12:20:03.657Z,8.87
2019-04-21T12:22:37.484Z,7.50
2019-04-21T12:25:13.512Z,7.27
2019-04-21T12:27:47.864Z,9.30
2019-04-21T12:30:24.078Z,7.80
2019-04-21T12:33:04.348Z,9.00
2019-04-21T12:35:39.488Z,13.10
2019-04-21T12:38:17.461Z,9.00
2019-04-21T12:40:51.001Z,6.37
2019-04-21T12:43:26.578Z,6.37
2019-04-21T12:46:00.385Z,9.10
2019-04-21T12:48:34.011Z,11.53
2019-04-21T12:51:07.925Z,6.40
2019-04-21T12:53:41.738Z,10.20
2019-04-21T12:56:17.738Z,8.57
2019-04-21T12:58:51.576Z,7.13
2019-04-21T13:01:25.259Z,6.30
2019-04-21T13:04:00.225Z,6.40
2019-04-21T13:06:33.942Z,7.47
2019-04-21T13:09:12.713Z,7.93
2019-04-21T13:11:44.647Z,6.73
2019-04-21T13:14:18.307Z,7.17
2019-04-21T13:16:53.247Z,9.73
2019-04-21T13:19:29.278Z,7.80
2019-04-21T13:22:05.743Z,8.50
2019-04-21T13:24:42.117Z,7.77
2019-04-21T13:27:20.536Z,8.17
2019-04-21T13:29:56.532Z,8.53
2019-04-21T13:32:31.176Z,14.77
2019-04-21T13:35:05.402Z,6.53
2019-04-21T13:37:41.514Z,9.23
2019-04-21T13:40:57.007Z,6.73
2019-04-21T13:43:20.951Z,12.67
2019-04-21T13:45:57.732Z,6.50
2019-04-21T13:48:32.659Z,8.83
2019-04-21T13:51:07.140Z,7.53
2019-04-21T13:53:41.867Z,7.53
2019-04-21T13:56:16.402Z,10.40
2019-04-21T13:58:52.629Z,5.90
2019-04-21T14:01:27.649Z,8.63
2019-04-21T14:04:05.186Z,8.47
2019-04-21T14:06:42.155Z,4.70
2019-04-21T14:09:17.868Z,8.30
2019-04-21T14:11:54.090Z,6.50
2019-04-21T14:14:28.375Z,6.07
2019-04-21T14:17:05.116Z,6.30
2019-04-21T14:19:37.767Z,8.40
2019-04-21T14:22:13.922Z,12.80
2019-04-21T14:24:48.050Z,8.70
2019-04-21T14:27:22.199Z,7.43
2019-04-21T14:29:55.834Z,9.70
2019-04-21T14:32:29.948Z,9.47
2019-04-21T14:35:04.857Z,6.60
2019-04-21T14:37:38.657Z,15.33
2019-04-21T14:40:20.125Z,8.80
2019-04-21T14:42:51.989Z,13.57
2019-04-21T14:45:48.634Z,10.87
2019-04-21T14:48:41.577Z,8.67
2019-04-21T14:51:47.468Z,10.13
2019-04-21T14:54:42.630Z,7.43
2019-04-21T14:57:21.241Z,8.60
2019-04-21T14:59:55.197Z,11.23
2019-04-21T15:02:29.866Z,10.73
2019-04-21T15:05:04.089Z,7.87
2019-04-21T15:07:39.300Z,10.63
2019-04-21T15:10:19.063Z,9.90
2019-04-21T15:12:50.118Z,5.70
2019-04-21T15:15:23.787Z,8.47
2019-04-21T15:17:57.939Z,9.50
2019-04-21T15:20:31.568Z,6.90
2019-04-21T15:23:06.295Z,5.90
2019-04-21T15:25:40.068Z,6.50
2019-04-21T15:28:15.902Z,10.10
2019-04-21T15:30:50.443Z,6.17
2019-04-21T15:33:26.465Z,6.03
2019-04-21T15:36:00.822Z,8.20
2019-04-21T15:38:35.801Z,7.10
2019-04-21T15:41:10.875Z,7.20
2019-04-21T15:43:46.737Z,6.80
2019-04-21T15:46:20.589Z,11.40
2019-04-21T15:48:55.150Z,6.53
2019-04-21T15:51:29.650Z,7.47
2019-04-21T15:54:04.901Z,5.33
2019-04-21T15:57:02.772Z,9.53
2019-04-21T16:00:04.667Z,9.07
2019-04-21T16:02:40.545Z,10.87
2019-04-21T16:05:16.910Z,9.47
2019-04-21T16:07:52.013Z,14.43
2019-04-21T16:10:34.625Z,8.43
2019-04-21T16:13:01.706Z,7.87
2019-04-21T16:15:36.558Z,9.77
2019-04-21T16:18:10.432Z,8.73
2019-04-21T16:20:44.032Z,9.07
2019-04-21T16:23:18.281Z,10.10
2019-04-21T16:25:52.755Z,8.87
2019-04-21T16:28:27.020Z,8.83
2019-04-21T16:31:04.677Z,8.30
2019-04-21T16:33:40.958Z,10.07
2019-04-21T16:36:18.096Z,6.90
2019-04-21T16:38:53.463Z,8.03
2019-04-21T16:41:28.544Z,7.93
2019-04-21T16:44:02.995Z,6.47
2019-04-21T16:46:37.746Z,11.63
2019-04-21T16:49:11.810Z,5.87
2019-04-21T16:51:47.543Z,7.13
2019-04-21T16:54:28.244Z,5.10
2019-04-21T16:57:13.798Z,5.63
2019-04-21T16:59:52.664Z,4.77
2019-04-21T17:02:28.392Z,4.90
2019-04-21T17:05:04.652Z,7.07
2019-04-21T17:07:38.882Z,6.03
2019-04-21T17:10:12.888Z,6.70
2019-04-21T17:12:48.009Z,5.90
2019-04-21T17:15:40.758Z,4.67
2019-04-21T17:18:20.827Z,4.47
2019-04-21T17:20:45.048Z,6.13
2019-04-21T17:23:11.488Z,5.00
2019-04-21T17:25:45.386Z,5.63
2019-04-21T17:28:19.612Z,6.60
2019-04-21T17:30:54.621Z,6.37
2019-04-21T17:33:30.202Z,3.83
2019-04-21T17:36:04.990Z,5.90
2019-04-21T17:38:39.880Z,6.00
2019-04-21T17:41:25.003Z,4.53
2019-04-21T17:43:49.938Z,6.10
2019-04-21T17:46:33.303Z,3.07
2019-04-21T17:49:01.017Z,4.67
2019-04-21T17:52:01.783Z,2.80
2019-04-21T17:54:43.608Z,6.40
2019-04-21T17:57:33.459Z,4.60
2019-04-21T18:00:14.076Z,3.73
2019-04-21T18:02:51.763Z,4.17
2019-04-21T18:05:28.991Z,8.93
2019-04-21T18:07:54.378Z,7.70
2019-04-21T18:10:34.795Z,2.67
2019-04-21T18:13:03.729Z,3.87
2019-04-21T18:15:50.695Z,5.00
2019-04-21T18:18:06.458Z,5.30
2019-04-21T18:20:46.250Z,13.90
2019-04-21T18:23:39.461Z,5.30
2019-04-21T18:26:08.170Z,4.07
2019-04-21T18:28:38.784Z,5.00
2019-04-21T18:31:16.532Z,3.37
2019-04-21T18:34:13.810Z,3.83
2019-04-21T18:36:51.710Z,10.97
2019-04-21T18:39:48.612Z,11.83
2019-04-21T18:42:32.783Z,5.40
2019-04-21T18:48:19.068Z,6.17
2019-04-21T18:51:18.953Z,3.93
2019-04-21T18:54:17.373Z,3.90
2019-04-21T18:56:33.748Z,7.17
2019-04-21T18:59:08.871Z,8.13
2019-04-21T19:01:51.447Z,10.47
2019-04-21T19:04:22.528Z,5.50
2019-04-21T19:07:06.701Z,4.70
2019-04-21T19:10:14.868Z,10.73
2019-04-21T19:12:35.150Z,7.50
2019-04-21T19:14:59.329Z,57.63
2019-04-21T19:22:47.194Z,25.37
2019-04-21T19:25:25.279Z,18.07
2019-04-21T19:28:04.625Z,22.30
2019-04-21T19:30:49.341Z,11.87
2019-04-21T19:33:22.062Z,12.77
2019-04-21T19:35:39.342Z,14.70
2019-04-21T19:38:16.195Z,6.90
2019-04-21T19:41:05.332Z,14.03
2019-04-21T19:43:49.275Z,12.60
2019-04-21T19:46:19.335Z,7.33
2019-04-21T19:49:05.495Z,13.70
2019-04-21T19:51:26.416Z,8.23
2019-04-21T19:54:00.794Z,19.53
2019-04-21T19:56:25.854Z,14.30
2019-04-21T19:59:01.171Z,16.17
2019-04-21T20:01:35.194Z,24.70
2019-04-21T20:04:10.424Z,40.20
2019-04-21T20:07:00.666Z,51.17
2019-04-21T20:09:39.606Z,28.50
2019-04-21T20:12:09.339Z,36.07
2019-04-21T20:14:55.750Z,14.00
2019-04-21T20:17:24.411Z,15.37
2019-04-21T20:19:45.024Z,125.27
2019-04-21T20:22:18.943Z,29.70
2019-04-21T20:25:00.181Z,121.07
2019-04-21T20:27:39.036Z,130.10
2019-04-21T20:30:29.770Z,61.90
2019-04-21T20:33:05.821Z,71.07
2019-04-21T20:35:45.096Z,64.33
2019-04-21T20:38:12.529Z,37.70
2019-04-21T20:40:45.347Z,16.20
2019-04-21T20:43:30.704Z,18.00
2019-04-21T20:46:06.143Z,15.93
2019-04-21T20:48:40.109Z,8.60
2019-04-21T20:51:18.570Z,11.30
2019-04-21T20:53:47.803Z,9.53
2019-04-21T20:56:19.324Z,17.20
2019-04-21T20:58:59.791Z,6.63
2019-04-21T21:01:39.402Z,11.57
2019-04-21T21:04:13.796Z,16.43
2019-04-21T21:06:54.114Z,7.97
2019-04-21T21:09:23.089Z,5.30
2019-04-21T21:12:18.254Z,7.20
2019-04-21T21:14:40.760Z,12.27
2019-04-21T21:17:36.112Z,6.37
2019-04-21T21:19:55.797Z,8.37
2019-04-21T21:22:22.789Z,10.60
2019-04-21T21:25:02.990Z,5.80
2019-04-21T21:27:38.351Z,9.07
2019-04-21T21:30:08.320Z,8.70
2019-04-21T21:32:52.428Z,9.17
2019-04-21T21:35:21.878Z,13.40
2019-04-21T21:38:06.728Z,11.53
2019-04-21T21:40:38.188Z,10.57
2019-04-21T21:43:01.555Z,10.93
2019-04-21T21:45:41.507Z,10.90
2019-04-21T21:48:26.434Z,11.67
2019-04-21T21:50:56.639Z,9.60
2019-04-21T21:53:26.998Z,8.83
2019-04-21T21:56:00.727Z,11.90
2019-04-21T21:58:41.917Z,12.77
2019-04-21T22:01:16.703Z,12.50
2019-04-21T22:03:59.199Z,9.17
2019-04-21T22:06:38.691Z,12.73
2019-04-21T22:09:01.702Z,10.67
2019-04-21T22:11:35.887Z,8.50
2019-04-21T22:14:17.146Z,10.63
2019-04-21T22:17:07.682Z,9.80
2019-04-21T22:19:41.629Z,9.70
2019-04-21T22:22:21.051Z,16.60
2019-04-21T22:24:49.316Z,9.23
2019-04-21T22:27:14.902Z,13.70
2019-04-21T22:29:53.513Z,12.37
2019-04-21T22:32:28.633Z,9.33
2019-04-21T22:35:04.810Z,10.50
2019-04-21T22:37:48.772Z,16.17
2019-04-21T22:40:23.997Z,8.77
2019-04-21T22:42:59.458Z,14.10
2019-04-21T22:45:25.141Z,18.50
2019-04-21T22:48:07.501Z,14.37
2019-04-21T22:50:38.375Z,11.97
2019-04-21T22:53:13.815Z,15.17
2019-04-21T22:55:49.602Z,13.33
2019-04-21T22:58:29.339Z,15.43
2019-04-21T23:01:01.856Z,13.23
2019-04-21T23:03:35.767Z,19.87
2019-04-21T23:06:17.917Z,12.00
2019-04-21T23:08:48.114Z,15.70
2019-04-21T23:11:23.540Z,14.20
2019-04-21T23:14:04.008Z,11.03
2019-04-21T23:16:38.443Z,14.77
2019-04-21T23:19:31.164Z,10.43
2019-04-21T23:22:04.151Z,11.13
2019-04-21T23:24:45.545Z,17.13
2019-04-21T23:27:15.573Z,11.63
2019-04-21T23:29:58.867Z,11.23
2019-04-21T23:32:23.899Z,13.80
2019-04-21T23:34:49.161Z,8.33
2019-04-21T23:37:27.178Z,8.17
2019-04-21T23:40:07.573Z,14.13
2019-04-21T23:42:41.559Z,9.90
2019-04-21T23:45:17.691Z,13.20
2019-04-21T23:48:05.004Z,12.40
2019-04-21T23:50:37.838Z,17.60
2019-04-21T23:53:01.800Z,14.60
2019-04-21T23:55:37.088Z,21.37
2019-04-21T23:58:16.385Z,10.07
